createdAt,value
2023-04-06T00:04:06.472Z,72.90
2023-04-06T00:06:34.211Z,72.90
2023-04-06T00:09:01.474Z,73.00
2023-04-06T00:11:28.210Z,73.00
2023-04-06T00:26:32.403Z,73.00
2023-04-06T00:28:59.986Z,73.00
2023-04-06T00:31:26.787Z,73.00
2023-04-06T00:33:53.451Z,73.00
2023-04-06T00:36:20.444Z,73.00
2023-04-06T00:41:19.335Z,73.00
2023-04-06T00:43:45.979Z,73.00
2023-04-06T00:53:47.447Z,73.00
2023-04-06T00:56:14.107Z,73.00
2023-04-06T00:58:41.656Z,73.00
2023-04-06T01:01:08.384Z,72.90
2023-04-06T01:03:35.104Z,72.90
2023-04-06T01:06:01.936Z,72.90
2023-04-06T01:08:28.788Z,73.00
2023-04-06T01:10:55.540Z,73.00
2023-04-06T01:13:22.120Z,72.90
2023-04-06T01:15:49.014Z,72.90
2023-04-06T01:18:16.486Z,72.90
2023-04-06T01:20:43.084Z,72.90
2023-04-06T01:23:09.776Z,72.90
2023-04-06T01:28:08.297Z,72.90
2023-04-06T01:30:35.005Z,73.00
2023-04-06T01:40:36.215Z,73.00
2023-04-06T01:43:02.929Z,73.00
2023-04-06T01:45:29.572Z,73.00
2023-04-06T01:50:27.770Z,73.00
2023-04-06T01:52:54.403Z,73.00
2023-04-06T01:55:21.010Z,73.00
2023-04-06T01:57:47.648Z,73.00
2023-04-06T02:00:15.336Z,73.00
2023-04-06T02:02:42.066Z,73.00
2023-04-06T02:10:16.158Z,72.90
2023-04-06T02:17:45.943Z,72.90
2023-04-06T02:25:16.452Z,72.90
2023-04-06T02:32:46.134Z,73.00
2023-04-06T02:35:12.920Z,73.00
2023-04-06T02:42:43.006Z,73.00
2023-04-06T02:45:09.719Z,72.90
2023-04-06T02:55:11.573Z,73.00
2023-04-06T02:57:38.205Z,73.00
2023-04-06T03:00:05.485Z,72.90
2023-04-06T03:02:32.165Z,72.90
2023-04-06T03:04:58.822Z,72.90
2023-04-06T03:09:57.260Z,72.90
2023-04-06T03:12:23.887Z,72.90
2023-04-06T03:14:50.631Z,72.90
2023-04-06T03:17:17.214Z,72.90
2023-04-06T03:19:43.833Z,73.00
2023-04-06T03:22:10.655Z,72.90
2023-04-06T03:24:37.278Z,72.90
2023-04-06T03:27:03.881Z,72.80
2023-04-06T03:29:30.978Z,72.90
2023-04-06T03:31:57.587Z,72.90
2023-04-06T03:34:24.164Z,72.90
2023-04-06T03:36:59.829Z,72.80
2023-04-06T03:39:33.847Z,72.80
2023-04-06T03:42:00.441Z,72.90
2023-04-06T03:49:30.062Z,72.90
2023-04-06T03:51:57.670Z,73.00
2023-04-06T03:54:24.309Z,72.80
2023-04-06T03:56:51.226Z,72.80
2023-04-06T03:59:17.849Z,72.80
2023-04-06T04:01:44.527Z,72.80
2023-04-06T04:09:14.664Z,72.80
2023-04-06T04:11:41.325Z,72.80
2023-04-06T04:21:45.900Z,72.90
2023-04-06T04:26:45.301Z,73.00
2023-04-06T04:31:43.479Z,73.10
2023-04-06T04:34:10.241Z,73.00
2023-04-06T04:46:43.354Z,73.10
2023-04-06T04:49:10.390Z,73.10
2023-04-06T04:51:37.495Z,73.00
2023-04-06T04:56:35.868Z,73.00
2023-04-06T05:04:05.730Z,73.00
2023-04-06T05:09:04.079Z,73.10
2023-04-06T05:14:02.366Z,73.00
2023-04-06T05:31:39.604Z,73.10
2023-04-06T05:36:38.133Z,73.10
2023-04-06T05:39:04.702Z,73.10
2023-04-06T05:46:34.818Z,73.20
2023-04-06T05:49:01.857Z,73.00
2023-04-06T05:54:00.571Z,73.10
2023-04-06T05:58:58.921Z,73.00
2023-04-06T06:03:57.224Z,73.00
2023-04-06T06:06:23.892Z,73.80
2023-04-06T06:11:22.306Z,74.90
2023-04-06T06:16:21.237Z,75.10
2023-04-06T06:21:19.455Z,75.10
2023-04-06T06:31:23.608Z,75.10
2023-04-06T06:33:53.377Z,75.00
2023-04-06T06:36:19.987Z,75.00
2023-04-06T06:41:18.552Z,75.10
2023-04-06T06:46:12.167Z,75.30
2023-04-06T06:48:38.816Z,75.50
2023-04-06T06:51:05.703Z,75.70
2023-04-06T06:53:32.432Z,76.10
2023-04-06T07:01:02.131Z,76.50
2023-04-06T07:03:28.743Z,76.60
2023-04-06T07:05:55.703Z,76.60
2023-04-06T07:08:23.679Z,76.70
2023-04-06T07:10:53.297Z,76.70
2023-04-06T07:13:24.161Z,76.70
2023-04-06T07:15:51.372Z,76.70
2023-04-06T07:18:19.132Z,76.70
2023-04-06T07:20:46.003Z,76.70
2023-04-06T07:23:13.393Z,76.70
2023-04-06T07:25:40.099Z,76.70
2023-04-06T07:28:06.843Z,76.70
2023-04-06T07:30:35.161Z,76.70
2023-04-06T07:38:08.880Z,76.70
2023-04-06T07:40:35.610Z,76.60
2023-04-06T07:43:02.944Z,76.60
2023-04-06T07:45:29.763Z,76.60
2023-04-06T07:47:56.587Z,76.60
2023-04-06T07:50:23.332Z,76.60
2023-04-06T07:55:21.815Z,76.50
2023-04-06T07:57:48.375Z,76.50
2023-04-06T08:00:15.373Z,76.50
2023-04-06T08:02:42.118Z,76.50
2023-04-06T08:15:15.889Z,76.50
2023-04-06T08:17:42.592Z,76.50
2023-04-06T08:20:09.668Z,76.40
2023-04-06T08:25:08.559Z,76.30
2023-04-06T08:27:35.305Z,76.40
2023-04-06T08:32:34.086Z,76.40
2023-04-06T08:37:32.632Z,76.30
2023-04-06T08:42:33.679Z,76.30
2023-04-06T08:52:38.862Z,76.20
2023-04-06T08:55:05.963Z,76.20
2023-04-06T09:00:05.976Z,76.10
2023-04-06T09:02:33.022Z,76.10
2023-04-06T09:05:02.171Z,75.90
2023-04-06T09:07:30.337Z,75.80
2023-04-06T09:09:57.009Z,75.70
2023-04-06T09:12:28.320Z,75.70
2023-04-06T09:20:03.841Z,75.50
2023-04-06T09:22:38.386Z,75.40
2023-04-06T09:25:05.551Z,75.30
2023-04-06T09:30:13.654Z,75.10
2023-04-06T09:32:51.534Z,75.00
2023-04-06T09:37:53.145Z,75.00
2023-04-06T09:40:20.484Z,75.00
2023-04-06T09:42:47.983Z,75.00
2023-04-06T09:45:15.226Z,74.90
2023-04-06T09:47:45.558Z,74.80
2023-04-06T09:55:30.298Z,74.60
2023-04-06T09:58:05.022Z,74.60
2023-04-06T10:00:35.918Z,74.60
2023-04-06T10:08:41.462Z,74.40
2023-04-06T10:13:36.869Z,74.30
2023-04-06T10:16:04.741Z,74.30
2023-04-06T10:18:31.676Z,74.40
2023-04-06T10:21:04.681Z,74.40
2023-04-06T10:23:36.122Z,74.50
2023-04-06T10:26:03.725Z,74.40
2023-04-06T10:28:36.539Z,74.40
2023-04-06T10:36:15.937Z,73.80
2023-04-06T10:38:43.351Z,73.70
2023-04-06T10:41:11.609Z,73.70
2023-04-06T10:43:40.068Z,73.90
2023-04-06T10:46:08.359Z,73.90
2023-04-06T10:51:24.849Z,73.90
2023-04-06T10:53:53.859Z,74.00
2023-04-06T10:56:23.773Z,73.90
2023-04-06T11:01:28.614Z,73.20
2023-04-06T11:06:34.614Z,72.80
2023-04-06T11:09:01.315Z,72.80
2023-04-06T11:11:28.340Z,72.80
2023-04-06T11:13:56.605Z,72.80
2023-04-06T11:19:09.416Z,72.30
2023-04-06T11:21:49.365Z,72.10
2023-04-06T11:24:25.886Z,71.70
2023-04-06T11:26:57.851Z,71.60
2023-04-06T11:29:27.251Z,71.30
2023-04-06T11:31:59.617Z,71.40
2023-04-06T11:34:26.972Z,71.50
2023-04-06T11:39:52.199Z,71.10
2023-04-06T11:42:30.577Z,70.90
2023-04-06T11:50:08.733Z,70.80
2023-04-06T11:52:35.448Z,70.70
2023-04-06T11:57:46.011Z,70.50
2023-04-06T12:00:13.378Z,70.50
2023-04-06T12:02:40.720Z,70.50
2023-04-06T12:05:09.204Z,70.20
2023-04-06T12:07:36.169Z,70.00
2023-04-06T12:10:03.680Z,69.80
2023-04-06T12:17:28.829Z,69.80
2023-04-06T12:19:57.167Z,69.60
2023-04-06T12:24:55.624Z,70.10
2023-04-06T12:29:54.371Z,70.70
2023-04-06T12:32:21.121Z,70.70
2023-04-06T12:34:48.151Z,70.20
2023-04-06T12:37:14.773Z,70.30
2023-04-06T12:47:19.469Z,69.20
2023-04-06T12:49:46.214Z,69.40
2023-04-06T12:52:12.959Z,69.40
2023-04-06T12:54:39.613Z,69.40
2023-04-06T12:57:06.197Z,69.20
2023-04-06T12:59:36.279Z,69.60
2023-04-06T13:02:04.587Z,69.20
2023-04-06T13:04:31.354Z,69.60
2023-04-06T13:06:57.940Z,69.10
2023-04-06T13:09:24.655Z,69.20
2023-04-06T13:11:51.557Z,69.20
2023-04-06T13:14:18.137Z,69.40
2023-04-06T13:19:16.537Z,68.60
2023-04-06T13:21:43.225Z,68.50
2023-04-06T13:24:10.167Z,68.70
2023-04-06T13:26:37.144Z,69.10
2023-04-06T13:29:04.035Z,69.10
2023-04-06T13:31:30.990Z,69.10
2023-04-06T13:33:57.600Z,68.90
2023-04-06T13:36:24.472Z,68.90
2023-04-06T13:38:51.390Z,69.00
2023-04-06T13:41:21.972Z,69.30
2023-04-06T13:43:48.985Z,69.50
2023-04-06T13:46:15.699Z,69.50
2023-04-06T13:58:49.897Z,69.70
2023-04-06T14:06:31.074Z,69.30
2023-04-06T14:08:58.304Z,69.40
2023-04-06T14:11:25.048Z,69.50
2023-04-06T14:13:51.755Z,70.50
2023-04-06T14:16:20.550Z,69.50
2023-04-06T14:18:47.266Z,69.60
2023-04-06T14:21:13.864Z,69.70
2023-04-06T14:23:40.876Z,69.90
2023-04-06T14:26:09.187Z,69.60
2023-04-06T14:28:36.796Z,69.50
2023-04-06T14:31:12.642Z,69.50
2023-04-06T14:33:39.688Z,69.50
2023-04-06T14:36:07.817Z,69.50
2023-04-06T14:41:06.773Z,69.80
2023-04-06T14:43:33.458Z,70.00
2023-04-06T14:46:03.256Z,69.90
2023-04-06T14:48:30.147Z,70.00
2023-04-06T14:50:57.384Z,69.90
2023-04-06T14:53:24.852Z,69.90
2023-04-06T15:03:32.134Z,70.00
2023-04-06T15:05:58.944Z,69.90
2023-04-06T15:08:25.803Z,70.00
2023-04-06T15:10:52.751Z,69.90
2023-04-06T15:13:19.749Z,69.90
2023-04-06T15:28:19.954Z,69.70
2023-04-06T15:30:46.622Z,69.40
2023-04-06T15:33:13.574Z,69.50
2023-04-06T15:35:42.814Z,69.50
2023-04-06T15:38:12.594Z,69.40
2023-04-06T15:40:47.919Z,69.10
2023-04-06T15:43:15.847Z,69.40
2023-04-06T15:45:42.763Z,68.80
2023-04-06T15:55:44.123Z,68.50
2023-04-06T15:58:10.651Z,68.90
2023-04-06T16:00:37.295Z,68.40
2023-04-06T16:03:04.118Z,68.80
2023-04-06T16:05:34.616Z,69.20
2023-04-06T16:08:02.933Z,68.50
2023-04-06T16:10:29.558Z,68.50
2023-04-06T16:15:27.596Z,68.60
2023-04-06T16:17:54.268Z,69.10
2023-04-06T16:20:20.851Z,69.50
2023-04-06T16:22:49.538Z,69.60
2023-04-06T16:25:16.419Z,70.20
2023-04-06T16:27:43.045Z,70.50
2023-04-06T16:30:10.405Z,70.70
2023-04-06T16:32:37.151Z,71.20
2023-04-06T16:37:36.319Z,71.60
2023-04-06T16:40:04.073Z,71.20
2023-04-06T16:42:31.252Z,71.60
2023-04-06T16:50:05.792Z,71.40
2023-04-06T16:52:47.421Z,71.20
2023-04-06T16:57:47.693Z,71.20
2023-04-06T17:00:15.272Z,71.00
2023-04-06T17:02:42.067Z,71.40
2023-04-06T17:05:09.199Z,71.10
2023-04-06T17:07:36.132Z,70.80
2023-04-06T17:10:03.590Z,70.80
2023-04-06T17:15:02.054Z,70.70
2023-04-06T17:17:28.933Z,70.70
2023-04-06T17:19:55.588Z,70.90
2023-04-06T17:22:22.180Z,70.70
2023-04-06T17:24:49.040Z,70.30
2023-04-06T17:27:16.403Z,70.70
2023-04-06T17:29:43.101Z,70.90
2023-04-06T17:32:11.782Z,70.90
2023-04-06T17:34:38.494Z,70.90
2023-04-06T17:37:05.644Z,71.10
2023-04-06T17:39:32.413Z,70.70
2023-04-06T17:41:59.849Z,70.70
2023-04-06T17:44:26.558Z,71.10
2023-04-06T17:46:53.184Z,71.10
2023-04-06T17:49:19.817Z,71.50
2023-04-06T17:51:46.788Z,71.70
2023-04-06T17:54:13.454Z,71.90
2023-04-06T17:56:40.508Z,71.80
2023-04-06T18:01:39.797Z,72.70
2023-04-06T18:04:06.662Z,73.20
2023-04-06T18:09:04.837Z,73.30
2023-04-06T18:16:43.805Z,73.30
2023-04-06T18:19:10.640Z,73.50
2023-04-06T18:24:12.308Z,72.70
2023-04-06T18:26:41.746Z,73.10
2023-04-06T18:31:39.811Z,72.90
2023-04-06T18:34:06.434Z,72.70
2023-04-06T18:36:33.037Z,73.00
2023-04-06T18:38:59.620Z,73.00
2023-04-06T18:41:26.688Z,72.90
2023-04-06T18:43:53.590Z,72.90
2023-04-06T18:46:20.916Z,72.90
2023-04-06T18:48:47.680Z,72.70
2023-04-06T18:51:14.287Z,72.80
2023-04-06T18:53:41.021Z,72.90
2023-04-06T18:56:18.711Z,72.70
2023-04-06T18:58:48.000Z,72.50
2023-04-06T19:01:22.774Z,72.90
2023-04-06T19:03:49.520Z,72.80
2023-04-06T19:06:16.182Z,72.90
2023-04-06T19:08:42.705Z,72.70
2023-04-06T19:11:09.376Z,72.80
2023-04-06T19:13:37.939Z,72.70
2023-04-06T19:16:11.158Z,72.80
2023-04-06T19:18:42.413Z,72.70
2023-04-06T19:21:19.869Z,72.70
2023-04-06T19:23:47.753Z,72.70
2023-04-06T19:31:19.841Z,72.70
2023-04-06T19:41:22.139Z,72.90
2023-04-06T19:43:48.722Z,72.90
2023-04-06T19:48:47.011Z,72.90
2023-04-06T19:51:13.599Z,72.90
2023-04-06T19:53:40.334Z,72.90
2023-04-06T19:56:06.918Z,73.00
2023-04-06T20:01:05.251Z,73.00
2023-04-06T20:03:32.226Z,73.00
2023-04-06T20:05:59.156Z,73.10
2023-04-06T20:08:25.743Z,73.10
2023-04-06T20:10:52.352Z,73.10
2023-04-06T20:13:20.767Z,73.10
2023-04-06T20:15:47.359Z,73.20
2023-04-06T20:18:13.923Z,73.30
2023-04-06T20:20:40.448Z,73.20
2023-04-06T20:23:07.095Z,73.30
2023-04-06T20:25:33.733Z,73.30
2023-04-06T20:28:00.941Z,73.40
2023-04-06T20:30:27.729Z,73.30
2023-04-06T20:40:20.155Z,73.50
2023-04-06T20:42:47.812Z,74.30
2023-04-06T20:45:14.531Z,73.60
2023-04-06T20:47:41.300Z,73.70
2023-04-06T20:50:08.450Z,73.60
2023-04-06T20:55:06.951Z,73.80
2023-04-06T20:57:33.516Z,73.80
2023-04-06T21:00:00.158Z,73.70
2023-04-06T21:02:26.956Z,73.80
2023-04-06T21:04:53.922Z,73.90
2023-04-06T21:07:20.685Z,73.90
2023-04-06T21:09:47.297Z,74.00
2023-04-06T21:12:13.894Z,74.00
2023-04-06T21:14:41.284Z,74.10
2023-04-06T21:17:07.909Z,74.10
2023-04-06T21:19:34.463Z,74.10
2023-04-06T21:22:00.991Z,74.10
2023-04-06T21:24:27.553Z,74.10
2023-04-06T21:26:54.178Z,74.20
2023-04-06T21:29:20.909Z,74.30
2023-04-06T21:31:47.443Z,74.30
2023-04-06T21:34:14.709Z,74.30
2023-04-06T21:36:41.806Z,74.40
2023-04-06T21:39:08.725Z,74.50
2023-04-06T21:41:35.609Z,74.50
2023-04-06T21:44:02.414Z,74.50
2023-04-06T21:46:29.062Z,74.70
2023-04-06T21:48:55.900Z,74.70
2023-04-06T21:51:23.412Z,74.80
2023-04-06T21:53:50.156Z,74.80
2023-04-06T21:56:21.821Z,74.80
2023-04-06T21:58:48.517Z,74.90
2023-04-06T22:01:15.224Z,74.90
2023-04-06T22:03:42.141Z,75.00
2023-04-06T22:06:09.167Z,75.00
2023-04-06T22:08:35.790Z,75.00
2023-04-06T22:11:11.585Z,75.10
2023-04-06T22:16:10.139Z,75.20
2023-04-06T22:18:38.817Z,75.20
2023-04-06T22:21:06.923Z,75.20
2023-04-06T22:23:33.545Z,75.40
2023-04-06T22:26:00.579Z,75.40
2023-04-06T22:36:02.433Z,75.40
2023-04-06T22:38:29.146Z,75.50
2023-04-06T22:40:55.787Z,75.50
2023-04-06T22:43:22.463Z,75.60
2023-04-06T22:45:49.011Z,75.60
2023-04-06T22:48:15.588Z,75.60
2023-04-06T22:50:42.239Z,75.60
2023-04-06T22:53:08.777Z,75.60
2023-04-06T22:55:35.409Z,75.80
2023-04-06T22:58:01.949Z,75.70
2023-04-06T23:00:28.557Z,75.70
2023-04-06T23:07:58.215Z,75.80
2023-04-06T23:10:24.870Z,75.80
2023-04-06T23:12:51.404Z,75.90
2023-04-06T23:15:18.038Z,75.90
2023-04-06T23:17:44.712Z,75.90
2023-04-06T23:20:11.340Z,75.90
2023-04-06T23:22:38.476Z,75.90
2023-04-06T23:27:37.107Z,75.90
2023-04-06T23:30:03.862Z,76.00
2023-04-06T23:45:09.517Z,76.00
2023-04-06T23:47:36.171Z,76.00
2023-04-06T23:50:03.013Z,76.00
2023-04-06T23:52:30.601Z,76.00
2023-04-06T23:54:57.200Z,76.10
2023-04-06T23:57:23.817Z,76.00
2023-04-06T23:59:50.399Z,76.10
